Terminal Aerodrome Forecast
Issued by NWS Flagstaff, AZ

Current Version | Previous Version | Text Only | Print | Product List | Glossary On
Versions: 1 2 3 4 5 6 7 8 9 10 11 12 13 14 15
000
FTUS45 KFGZ 280100 AAA
TAFFLG
TAF AMD
KFLG 280122Z 2801/2824 24015G25KT P6SM SCT035 OVC045
      TEMPO 2801/2804 6SM -SHRA BR SCT020 BKN035
     FM280400 24011KT 4SM -SHSN BR SCT020 OVC030
     FM280800 23008KT 2SM -SHSN BR SCT015 OVC020
     FM281700 22015G30KT 2SM -SHSN BR SCT015 OVC020
     FM281900 22020G35KT 2SM -SHSN BR SCT015 OVC025=

USA.gov is the U.S. government's official web portal to all federal, state and local government web resources and services.